sensor_id;sensor_type;location;lat;lon;timestamp;P1;durP1;ratioP1;P2;durP2;ratioP2
55915;SDS011;41826;53.246;-6.670;2023-07-29T00:00:39;5.65;;;1.67;;
55915;SDS011;41826;53.246;-6.670;2023-07-29T00:03:05;2.65;;;1.30;;
55915;SDS011;41826;53.246;-6.670;2023-07-29T00:05:31;5.40;;;0.82;;
55915;SDS011;41826;53.246;-6.670;2023-07-29T00:07:56;3.65;;;1.17;;
55915;SDS011;41826;53.246;-6.670;2023-07-29T00:10:21;4.90;;;1.10;;
55915;SDS011;41826;53.246;-6.670;2023-07-29T00:12:47;6.88;;;1.50;;
55915;SDS011;41826;53.246;-6.670;2023-07-29T00:15:13;2.90;;;1.00;;
55915;SDS011;41826;53.246;-6.670;2023-07-29T00:17:38;4.70;;;1.30;;
55915;SDS011;41826;53.246;-6.670;2023-07-29T00:20:04;5.55;;;1.65;;
55915;SDS011;41826;53.246;-6.670;2023-07-29T00:22:31;4.28;;;1.27;;
55915;SDS011;41826;53.246;-6.670;2023-07-29T00:24:56;6.82;;;1.45;;
55915;SDS011;41826;53.246;-6.670;2023-07-29T00:27:22;6.15;;;1.15;;
55915;SDS011;41826;53.246;-6.670;2023-07-29T00:29:48;3.78;;;1.30;;
55915;SDS011;41826;53.246;-6.670;2023-07-29T00:32:14;4.45;;;1.17;;
55915;SDS011;41826;53.246;-6.670;2023-07-29T00:34:39;3.47;;;0.82;;
55915;SDS011;41826;53.246;-6.670;2023-07-29T00:37:05;6.28;;;1.17;;
55915;SDS011;41826;53.246;-6.670;2023-07-29T00:39:31;3.13;;;1.20;;
55915;SDS011;41826;53.246;-6.670;2023-07-29T00:41:57;2.15;;;1.02;;
55915;SDS011;41826;53.246;-6.670;2023-07-29T00:44:22;3.38;;;0.93;;
55915;SDS011;41826;53.246;-6.670;2023-07-29T00:46:48;7.03;;;1.35;;
55915;SDS011;41826;53.246;-6.670;2023-07-29T00:49:15;9.40;;;1.40;;
55915;SDS011;41826;53.246;-6.670;2023-07-29T00:51:41;10.75;;;1.60;;
55915;SDS011;41826;53.246;-6.670;2023-07-29T00:54:06;3.38;;;1.10;;
55915;SDS011;41826;53.246;-6.670;2023-07-29T00:56:32;6.15;;;1.30;;
55915;SDS011;41826;53.246;-6.670;2023-07-29T00:58:58;3.70;;;1.17;;
55915;SDS011;41826;53.246;-6.670;2023-07-29T01:01:26;4.20;;;0.90;;
55915;SDS011;41826;53.246;-6.670;2023-07-29T01:03:52;1.63;;;0.77;;
55915;SDS011;41826;53.246;-6.670;2023-07-29T01:09:17;5.93;;;1.73;;
55915;SDS011;41826;53.246;-6.670;2023-07-29T01:12:03;5.78;;;1.80;;
55915;SDS011;41826;53.246;-6.670;2023-07-29T01:14:41;8.35;;;1.40;;
55915;SDS011;41826;53.246;-6.670;2023-07-29T01:17:20;7.25;;;1.40;;
55915;SDS011;41826;53.246;-6.670;2023-07-29T01:22:33;5.43;;;1.05;;
55915;SDS011;41826;53.246;-6.670;2023-07-29T01:24:59;3.20;;;1.00;;
55915;SDS011;41826;53.246;-6.670;2023-07-29T01:27:25;6.68;;;1.30;;
55915;SDS011;41826;53.246;-6.670;2023-07-29T01:29:52;7.35;;;1.05;;
55915;SDS011;41826;53.246;-6.670;2023-07-29T01:32:41;5.63;;;1.42;;
55915;SDS011;41826;53.246;-6.670;2023-07-29T01:35:33;6.80;;;1.40;;
55915;SDS011;41826;53.246;-6.670;2023-07-29T01:38:06;4.45;;;1.20;;
55915;SDS011;41826;53.246;-6.670;2023-07-29T01:40:44;9.45;;;1.33;;
55915;SDS011;41826;53.246;-6.670;2023-07-29T01:43:10;6.55;;;1.33;;
55915;SDS011;41826;53.246;-6.670;2023-07-29T01:45:36;8.50;;;2.03;;
55915;SDS011;41826;53.246;-6.670;2023-07-29T01:48:06;7.72;;;1.60;;
55915;SDS011;41826;53.246;-6.670;2023-07-29T01:50:33;11.73;;;2.00;;
55915;SDS011;41826;53.246;-6.670;2023-07-29T01:52:58;6.95;;;1.77;;
55915;SDS011;41826;53.246;-6.670;2023-07-29T01:55:24;5.38;;;1.50;;
55915;SDS011;41826;53.246;-6.670;2023-07-29T01:57:50;10.60;;;2.75;;
55915;SDS011;41826;53.246;-6.670;2023-07-29T02:00:16;13.07;;;1.63;;
55915;SDS011;41826;53.246;-6.670;2023-07-29T02:05:10;3.80;;;1.50;;
55915;SDS011;41826;53.246;-6.670;2023-07-29T02:07:35;12.95;;;2.00;;
55915;SDS011;41826;53.246;-6.670;2023-07-29T02:10:01;6.78;;;1.60;;
55915;SDS011;41826;53.246;-6.670;2023-07-29T02:12:26;12.45;;;1.70;;
55915;SDS011;41826;53.246;-6.670;2023-07-29T02:14:52;9.40;;;1.60;;
55915;SDS011;41826;53.246;-6.670;2023-07-29T02:17:17;7.25;;;1.33;;
55915;SDS011;41826;53.246;-6.670;2023-07-29T02:19:42;5.43;;;1.60;;
55915;SDS011;41826;53.246;-6.670;2023-07-29T02:22:09;7.32;;;1.42;;
55915;SDS011;41826;53.246;-6.670;2023-07-29T02:24:36;9.07;;;1.50;;
55915;SDS011;41826;53.246;-6.670;2023-07-29T02:27:01;5.60;;;1.33;;
55915;SDS011;41826;53.246;-6.670;2023-07-29T02:29:26;6.65;;;1.42;;
55915;SDS011;41826;53.246;-6.670;2023-07-29T02:31:52;8.55;;;1.50;;
55915;SDS011;41826;53.246;-6.670;2023-07-29T02:34:17;11.25;;;1.90;;
55915;SDS011;41826;53.246;-6.670;2023-07-29T02:36:42;5.35;;;1.55;;
55915;SDS011;41826;53.246;-6.670;2023-07-29T02:39:08;6.72;;;1.20;;
55915;SDS011;41826;53.246;-6.670;2023-07-29T02:41:33;4.22;;;1.10;;
55915;SDS011;41826;53.246;-6.670;2023-07-29T02:43:59;4.78;;;1.20;;
55915;SDS011;41826;53.246;-6.670;2023-07-29T02:46:24;6.72;;;1.70;;
55915;SDS011;41826;53.246;-6.670;2023-07-29T02:48:50;9.95;;;1.83;;
55915;SDS011;41826;53.246;-6.670;2023-07-29T02:51:15;5.45;;;1.30;;
55915;SDS011;41826;53.246;-6.670;2023-07-29T02:53:41;13.05;;;1.33;;
55915;SDS011;41826;53.246;-6.670;2023-07-29T02:56:06;8.60;;;1.67;;
55915;SDS011;41826;53.246;-6.670;2023-07-29T02:58:34;15.70;;;1.77;;
55915;SDS011;41826;53.246;-6.670;2023-07-29T03:01:03;4.53;;;1.77;;
55915;SDS011;41826;53.246;-6.670;2023-07-29T03:03:30;6.50;;;1.10;;
55915;SDS011;41826;53.246;-6.670;2023-07-29T03:06:03;9.35;;;1.58;;
55915;SDS011;41826;53.246;-6.670;2023-07-29T03:08:30;14.48;;;1.98;;
55915;SDS011;41826;53.246;-6.670;2023-07-29T03:10:55;5.32;;;1.58;;
55915;SDS011;41826;53.246;-6.670;2023-07-29T03:13:21;8.15;;;1.33;;
55915;SDS011;41826;53.246;-6.670;2023-07-29T03:15:47;8.05;;;1.35;;
55915;SDS011;41826;53.246;-6.670;2023-07-29T03:18:12;7.32;;;1.95;;
55915;SDS011;41826;53.246;-6.670;2023-07-29T03:20:37;5.57;;;1.20;;
55915;SDS011;41826;53.246;-6.670;2023-07-29T03:23:03;9.65;;;1.38;;
55915;SDS011;41826;53.246;-6.670;2023-07-29T03:25:28;7.22;;;1.23;;
55915;SDS011;41826;53.246;-6.670;2023-07-29T03:27:54;15.82;;;2.00;;
55915;SDS011;41826;53.246;-6.670;2023-07-29T03:30:20;9.95;;;2.00;;
55915;SDS011;41826;53.246;-6.670;2023-07-29T03:32:46;5.97;;;1.58;;
55915;SDS011;41826;53.246;-6.670;2023-07-29T03:35:12;10.45;;;1.90;;
55915;SDS011;41826;53.246;-6.670;2023-07-29T03:37:37;10.93;;;1.65;;
55915;SDS011;41826;53.246;-6.670;2023-07-29T03:40:03;8.48;;;1.73;;
55915;SDS011;41826;53.246;-6.670;2023-07-29T03:42:30;9.52;;;1.73;;
55915;SDS011;41826;53.246;-6.670;2023-07-29T03:44:55;9.15;;;1.58;;
55915;SDS011;41826;53.246;-6.670;2023-07-29T03:47:21;11.85;;;2.63;;
55915;SDS011;41826;53.246;-6.670;2023-07-29T03:49:46;9.20;;;2.20;;
55915;SDS011;41826;53.246;-6.670;2023-07-29T03:52:11;7.50;;;1.58;;
55915;SDS011;41826;53.246;-6.670;2023-07-29T03:54:37;10.05;;;1.30;;
55915;SDS011;41826;53.246;-6.670;2023-07-29T03:57:02;8.63;;;1.58;;
55915;SDS011;41826;53.246;-6.670;2023-07-29T03:59:28;7.00;;;1.35;;
55915;SDS011;41826;53.246;-6.670;2023-07-29T04:01:54;13.25;;;1.90;;
55915;SDS011;41826;53.246;-6.670;2023-07-29T04:04:19;7.25;;;1.80;;
55915;SDS011;41826;53.246;-6.670;2023-07-29T04:06:45;9.02;;;1.85;;
55915;SDS011;41826;53.246;-6.670;2023-07-29T04:09:11;8.85;;;1.38;;
55915;SDS011;41826;53.246;-6.670;2023-07-29T04:11:36;9.85;;;1.48;;
55915;SDS011;41826;53.246;-6.670;2023-07-29T04:14:01;3.13;;;1.20;;
55915;SDS011;41826;53.246;-6.670;2023-07-29T04:16:27;8.85;;;1.45;;
55915;SDS011;41826;53.246;-6.670;2023-07-29T04:18:53;8.00;;;1.60;;
55915;SDS011;41826;53.246;-6.670;2023-07-29T04:21:19;12.15;;;1.60;;
55915;SDS011;41826;53.246;-6.670;2023-07-29T04:23:44;7.18;;;1.30;;
55915;SDS011;41826;53.246;-6.670;2023-07-29T04:26:10;5.55;;;1.50;;
55915;SDS011;41826;53.246;-6.670;2023-07-29T04:28:35;7.95;;;2.00;;
55915;SDS011;41826;53.246;-6.670;2023-07-29T04:31:01;7.10;;;1.30;;
55915;SDS011;41826;53.246;-6.670;2023-07-29T04:33:26;11.45;;;1.23;;
55915;SDS011;41826;53.246;-6.670;2023-07-29T04:35:51;13.00;;;2.17;;
55915;SDS011;41826;53.246;-6.670;2023-07-29T04:38:17;8.95;;;1.70;;
55915;SDS011;41826;53.246;-6.670;2023-07-29T04:40:42;10.90;;;1.58;;
55915;SDS011;41826;53.246;-6.670;2023-07-29T04:43:08;7.88;;;1.95;;
55915;SDS011;41826;53.246;-6.670;2023-07-29T04:45:33;9.32;;;1.60;;
55915;SDS011;41826;53.246;-6.670;2023-07-29T04:47:59;5.65;;;1.10;;
55915;SDS011;41826;53.246;-6.670;2023-07-29T04:50:24;7.78;;;1.30;;
55915;SDS011;41826;53.246;-6.670;2023-07-29T04:52:49;10.13;;;1.98;;
55915;SDS011;41826;53.246;-6.670;2023-07-29T04:55:15;9.88;;;1.45;;
55915;SDS011;41826;53.246;-6.670;2023-07-29T04:57:40;8.35;;;1.48;;
55915;SDS011;41826;53.246;-6.670;2023-07-29T05:00:06;5.88;;;1.40;;
55915;SDS011;41826;53.246;-6.670;2023-07-29T05:02:32;6.18;;;1.20;;
55915;SDS011;41826;53.246;-6.670;2023-07-29T05:04:57;3.70;;;1.30;;
55915;SDS011;41826;53.246;-6.670;2023-07-29T05:07:22;3.97;;;1.58;;
55915;SDS011;41826;53.246;-6.670;2023-07-29T05:09:48;5.30;;;1.20;;
55915;SDS011;41826;53.246;-6.670;2023-07-29T05:12:13;13.07;;;2.70;;
55915;SDS011;41826;53.246;-6.670;2023-07-29T05:14:39;6.55;;;1.40;;
55915;SDS011;41826;53.246;-6.670;2023-07-29T05:17:04;8.32;;;1.63;;
55915;SDS011;41826;53.246;-6.670;2023-07-29T05:19:30;7.35;;;1.38;;
55915;SDS011;41826;53.246;-6.670;2023-07-29T05:21:56;7.05;;;1.23;;
55915;SDS011;41826;53.246;-6.670;2023-07-29T05:24:22;6.43;;;1.55;;
55915;SDS011;41826;53.246;-6.670;2023-07-29T05:26:48;9.98;;;1.80;;
55915;SDS011;41826;53.246;-6.670;2023-07-29T05:29:13;7.60;;;1.38;;
55915;SDS011;41826;53.246;-6.670;2023-07-29T05:31:39;9.07;;;1.83;;
55915;SDS011;41826;53.246;-6.670;2023-07-29T05:34:04;4.95;;;1.20;;
55915;SDS011;41826;53.246;-6.670;2023-07-29T05:36:30;8.15;;;1.40;;
55915;SDS011;41826;53.246;-6.670;2023-07-29T05:38:55;16.70;;;2.20;;
55915;SDS011;41826;53.246;-6.670;2023-07-29T05:41:20;10.32;;;2.10;;
55915;SDS011;41826;53.246;-6.670;2023-07-29T05:43:46;7.50;;;1.83;;
55915;SDS011;41826;53.246;-6.670;2023-07-29T05:46:11;12.00;;;1.85;;
55915;SDS011;41826;53.246;-6.670;2023-07-29T05:48:37;12.07;;;1.67;;
55915;SDS011;41826;53.246;-6.670;2023-07-29T05:51:02;9.93;;;1.67;;
55915;SDS011;41826;53.246;-6.670;2023-07-29T05:53:29;8.25;;;2.17;;
55915;SDS011;41826;53.246;-6.670;2023-07-29T05:55:54;11.07;;;1.85;;
55915;SDS011;41826;53.246;-6.670;2023-07-29T05:58:19;8.52;;;1.50;;
55915;SDS011;41826;53.246;-6.670;2023-07-29T06:00:45;12.65;;;2.00;;
55915;SDS011;41826;53.246;-6.670;2023-07-29T06:03:10;9.35;;;1.60;;
55915;SDS011;41826;53.246;-6.670;2023-07-29T06:05:36;12.77;;;1.98;;
55915;SDS011;41826;53.246;-6.670;2023-07-29T06:08:01;11.15;;;1.95;;
55915;SDS011;41826;53.246;-6.670;2023-07-29T06:10:28;7.28;;;1.50;;
55915;SDS011;41826;53.246;-6.670;2023-07-29T06:12:53;6.40;;;1.60;;
55915;SDS011;41826;53.246;-6.670;2023-07-29T06:15:20;8.27;;;1.58;;
55915;SDS011;41826;53.246;-6.670;2023-07-29T06:17:48;14.05;;;1.60;;
55915;SDS011;41826;53.246;-6.670;2023-07-29T06:20:13;9.20;;;2.58;;
55915;SDS011;41826;53.246;-6.670;2023-07-29T06:22:39;8.45;;;1.65;;
55915;SDS011;41826;53.246;-6.670;2023-07-29T06:25:04;7.32;;;2.13;;
55915;SDS011;41826;53.246;-6.670;2023-07-29T06:27:30;6.95;;;1.30;;
55915;SDS011;41826;53.246;-6.670;2023-07-29T06:29:55;7.00;;;1.10;;
55915;SDS011;41826;53.246;-6.670;2023-07-29T06:32:21;7.63;;;1.17;;
55915;SDS011;41826;53.246;-6.670;2023-07-29T06:34:46;8.57;;;1.10;;
55915;SDS011;41826;53.246;-6.670;2023-07-29T06:37:11;5.88;;;1.27;;
55915;SDS011;41826;53.246;-6.670;2023-07-29T06:39:37;8.85;;;1.70;;
55915;SDS011;41826;53.246;-6.670;2023-07-29T06:42:02;7.78;;;1.48;;
55915;SDS011;41826;53.246;-6.670;2023-07-29T06:44:28;7.03;;;1.20;;
55915;SDS011;41826;53.246;-6.670;2023-07-29T06:46:53;12.88;;;1.52;;
55915;SDS011;41826;53.246;-6.670;2023-07-29T06:49:18;6.05;;;1.23;;
55915;SDS011;41826;53.246;-6.670;2023-07-29T06:51:44;6.85;;;1.23;;
55915;SDS011;41826;53.246;-6.670;2023-07-29T06:54:09;9.82;;;1.23;;
55915;SDS011;41826;53.246;-6.670;2023-07-29T06:56:35;8.07;;;1.67;;
55915;SDS011;41826;53.246;-6.670;2023-07-29T06:59:00;12.25;;;2.47;;
55915;SDS011;41826;53.246;-6.670;2023-07-29T07:01:25;7.70;;;1.33;;
55915;SDS011;41826;53.246;-6.670;2023-07-29T07:03:51;7.78;;;1.85;;
55915;SDS011;41826;53.246;-6.670;2023-07-29T07:06:19;11.93;;;1.23;;
55915;SDS011;41826;53.246;-6.670;2023-07-29T07:08:46;9.40;;;1.95;;
55915;SDS011;41826;53.246;-6.670;2023-07-29T07:11:11;7.72;;;1.45;;
55915;SDS011;41826;53.246;-6.670;2023-07-29T07:13:36;7.07;;;1.70;;
55915;SDS011;41826;53.246;-6.670;2023-07-29T07:16:02;9.35;;;1.33;;
55915;SDS011;41826;53.246;-6.670;2023-07-29T07:18:27;7.65;;;1.52;;
55915;SDS011;41826;53.246;-6.670;2023-07-29T07:20:52;11.65;;;2.33;;
55915;SDS011;41826;53.246;-6.670;2023-07-29T07:23:18;8.98;;;2.33;;
55915;SDS011;41826;53.246;-6.670;2023-07-29T07:25:43;9.07;;;2.45;;
55915;SDS011;41826;53.246;-6.670;2023-07-29T07:28:09;9.32;;;1.40;;
55915;SDS011;41826;53.246;-6.670;2023-07-29T07:30:35;16.00;;;1.23;;
55915;SDS011;41826;53.246;-6.670;2023-07-29T07:33:00;5.55;;;1.42;;
55915;SDS011;41826;53.246;-6.670;2023-07-29T07:35:26;11.30;;;1.40;;
55915;SDS011;41826;53.246;-6.670;2023-07-29T07:37:52;8.85;;;1.50;;
55915;SDS011;41826;53.246;-6.670;2023-07-29T07:40:17;11.00;;;1.40;;
55915;SDS011;41826;53.246;-6.670;2023-07-29T07:42:42;7.72;;;1.05;;
55915;SDS011;41826;53.246;-6.670;2023-07-29T07:45:08;7.68;;;1.85;;
55915;SDS011;41826;53.246;-6.670;2023-07-29T07:47:33;9.95;;;1.45;;
55915;SDS011;41826;53.246;-6.670;2023-07-29T07:49:59;7.22;;;1.60;;
55915;SDS011;41826;53.246;-6.670;2023-07-29T07:52:24;7.20;;;1.60;;
55915;SDS011;41826;53.246;-6.670;2023-07-29T07:54:53;9.02;;;1.30;;
55915;SDS011;41826;53.246;-6.670;2023-07-29T07:57:20;6.90;;;1.13;;
55915;SDS011;41826;53.246;-6.670;2023-07-29T07:59:46;5.72;;;1.15;;
55915;SDS011;41826;53.246;-6.670;2023-07-29T08:02:11;11.63;;;1.30;;
55915;SDS011;41826;53.246;-6.670;2023-07-29T08:04:36;6.78;;;1.00;;
55915;SDS011;41826;53.246;-6.670;2023-07-29T08:07:02;3.88;;;0.60;;
55915;SDS011;41826;53.246;-6.670;2023-07-29T08:09:27;3.05;;;0.85;;
55915;SDS011;41826;53.246;-6.670;2023-07-29T08:11:52;6.43;;;0.93;;
55915;SDS011;41826;53.246;-6.670;2023-07-29T08:14:18;9.32;;;1.15;;
55915;SDS011;41826;53.246;-6.670;2023-07-29T08:16:43;8.55;;;1.80;;
55915;SDS011;41826;53.246;-6.670;2023-07-29T08:19:08;9.52;;;1.30;;
55915;SDS011;41826;53.246;-6.670;2023-07-29T08:21:35;11.52;;;1.33;;
55915;SDS011;41826;53.246;-6.670;2023-07-29T08:24:00;8.63;;;1.30;;
55915;SDS011;41826;53.246;-6.670;2023-07-29T08:26:25;6.03;;;1.23;;
55915;SDS011;41826;53.246;-6.670;2023-07-29T08:28:51;7.50;;;1.02;;
55915;SDS011;41826;53.246;-6.670;2023-07-29T08:31:16;6.82;;;1.15;;
55915;SDS011;41826;53.246;-6.670;2023-07-29T08:33:42;6.60;;;1.33;;
55915;SDS011;41826;53.246;-6.670;2023-07-29T08:36:07;10.55;;;1.23;;
55915;SDS011;41826;53.246;-6.670;2023-07-29T08:38:33;4.80;;;0.88;;
55915;SDS011;41826;53.246;-6.670;2023-07-29T08:41:13;5.05;;;1.20;;
55915;SDS011;41826;53.246;-6.670;2023-07-29T08:43:50;8.60;;;1.20;;
55915;SDS011;41826;53.246;-6.670;2023-07-29T08:46:21;7.03;;;1.00;;
55915;SDS011;41826;53.246;-6.670;2023-07-29T08:48:47;10.88;;;1.13;;
55915;SDS011;41826;53.246;-6.670;2023-07-29T08:51:12;8.75;;;1.48;;
55915;SDS011;41826;53.246;-6.670;2023-07-29T08:53:39;10.05;;;1.17;;
55915;SDS011;41826;53.246;-6.670;2023-07-29T08:56:07;4.00;;;0.50;;
55915;SDS011;41826;53.246;-6.670;2023-07-29T08:58:33;4.13;;;1.02;;
55915;SDS011;41826;53.246;-6.670;2023-07-29T09:00:59;5.75;;;1.25;;
55915;SDS011;41826;53.246;-6.670;2023-07-29T09:03:25;3.80;;;0.60;;
55915;SDS011;41826;53.246;-6.670;2023-07-29T09:05:50;6.00;;;1.08;;
55915;SDS011;41826;53.246;-6.670;2023-07-29T09:08:16;2.97;;;0.90;;
55915;SDS011;41826;53.246;-6.670;2023-07-29T09:10:42;6.90;;;1.27;;
55915;SDS011;41826;53.246;-6.670;2023-07-29T09:13:08;9.32;;;1.15;;
55915;SDS011;41826;53.246;-6.670;2023-07-29T09:15:36;6.32;;;1.20;;
55915;SDS011;41826;53.246;-6.670;2023-07-29T09:18:35;2.13;;;0.70;;
55915;SDS011;41826;53.246;-6.670;2023-07-29T09:20:54;2.90;;;0.50;;
55915;SDS011;41826;53.246;-6.670;2023-07-29T09:23:24;6.70;;;1.42;;
55915;SDS011;41826;53.246;-6.670;2023-07-29T09:25:49;13.75;;;1.10;;
55915;SDS011;41826;53.246;-6.670;2023-07-29T09:28:15;5.53;;;0.70;;
55915;SDS011;41826;53.246;-6.670;2023-07-29T09:30:42;7.93;;;1.30;;
55915;SDS011;41826;53.246;-6.670;2023-07-29T09:33:10;6.25;;;0.85;;
55915;SDS011;41826;53.246;-6.670;2023-07-29T09:35:36;4.90;;;0.95;;
55915;SDS011;41826;53.246;-6.670;2023-07-29T09:38:03;8.88;;;1.50;;
55915;SDS011;41826;53.246;-6.670;2023-07-29T09:40:36;8.15;;;1.65;;
55915;SDS011;41826;53.246;-6.670;2023-07-29T09:43:02;7.88;;;1.60;;
55915;SDS011;41826;53.246;-6.670;2023-07-29T09:45:29;4.88;;;1.23;;
55915;SDS011;41826;53.246;-6.670;2023-07-29T09:47:55;3.08;;;0.80;;
55915;SDS011;41826;53.246;-6.670;2023-07-29T09:50:26;5.60;;;0.95;;
55915;SDS011;41826;53.246;-6.670;2023-07-29T09:52:53;4.97;;;1.13;;
55915;SDS011;41826;53.246;-6.670;2023-07-29T09:55:19;2.35;;;0.70;;
55915;SDS011;41826;53.246;-6.670;2023-07-29T09:57:47;4.55;;;1.00;;
55915;SDS011;41826;53.246;-6.670;2023-07-29T10:00:12;4.95;;;1.23;;
55915;SDS011;41826;53.246;-6.670;2023-07-29T10:02:39;4.32;;;0.95;;
55915;SDS011;41826;53.246;-6.670;2023-07-29T10:05:06;6.90;;;1.58;;
55915;SDS011;41826;53.246;-6.670;2023-07-29T10:07:33;5.63;;;1.63;;
55915;SDS011;41826;53.246;-6.670;2023-07-29T10:10:01;6.68;;;1.50;;
55915;SDS011;41826;53.246;-6.670;2023-07-29T10:12:29;6.25;;;1.10;;
55915;SDS011;41826;53.246;-6.670;2023-07-29T10:14:58;6.25;;;0.93;;
55915;SDS011;41826;53.246;-6.670;2023-07-29T10:17:24;4.28;;;0.85;;
55915;SDS011;41826;53.246;-6.670;2023-07-29T10:19:51;3.00;;;0.60;;
55915;SDS011;41826;53.246;-6.670;2023-07-29T10:22:17;5.32;;;0.85;;
55915;SDS011;41826;53.246;-6.670;2023-07-29T10:24:46;5.07;;;0.75;;
55915;SDS011;41826;53.246;-6.670;2023-07-29T10:27:13;0.65;;;0.43;;
55915;SDS011;41826;53.246;-6.670;2023-07-29T10:29:42;2.90;;;0.88;;
55915;SDS011;41826;53.246;-6.670;2023-07-29T10:32:10;1.77;;;0.50;;
55915;SDS011;41826;53.246;-6.670;2023-07-29T10:34:36;3.85;;;0.73;;
55915;SDS011;41826;53.246;-6.670;2023-07-29T10:37:04;6.03;;;0.60;;
55915;SDS011;41826;53.246;-6.670;2023-07-29T10:39:40;3.35;;;0.60;;
55915;SDS011;41826;53.246;-6.670;2023-07-29T10:42:16;6.25;;;0.90;;
55915;SDS011;41826;53.246;-6.670;2023-07-29T10:47:13;2.97;;;0.70;;
55915;SDS011;41826;53.246;-6.670;2023-07-29T10:49:43;1.02;;;0.57;;
55915;SDS011;41826;53.246;-6.670;2023-07-29T10:52:12;1.70;;;0.50;;
55915;SDS011;41826;53.246;-6.670;2023-07-29T10:54:46;5.43;;;1.23;;
55915;SDS011;41826;53.246;-6.670;2023-07-29T10:57:13;2.05;;;0.70;;
55915;SDS011;41826;53.246;-6.670;2023-07-29T10:59:40;9.50;;;1.00;;
55915;SDS011;41826;53.246;-6.670;2023-07-29T11:02:15;1.90;;;0.57;;
55915;SDS011;41826;53.246;-6.670;2023-07-29T11:04:47;1.45;;;0.50;;
55915;SDS011;41826;53.246;-6.670;2023-07-29T11:15:24;2.40;;;0.52;;
55915;SDS011;41826;53.246;-6.670;2023-07-29T11:17:52;1.55;;;0.40;;
55915;SDS011;41826;53.246;-6.670;2023-07-29T11:20:20;3.08;;;0.90;;
55915;SDS011;41826;53.246;-6.670;2023-07-29T11:22:47;1.52;;;0.50;;
55915;SDS011;41826;53.246;-6.670;2023-07-29T11:25:14;1.83;;;0.43;;
55915;SDS011;41826;53.246;-6.670;2023-07-29T11:27:42;2.92;;;0.80;;
55915;SDS011;41826;53.246;-6.670;2023-07-29T11:30:12;5.35;;;0.95;;
55915;SDS011;41826;53.246;-6.670;2023-07-29T11:32:39;3.38;;;0.55;;
55915;SDS011;41826;53.246;-6.670;2023-07-29T11:35:07;2.00;;;0.80;;
55915;SDS011;41826;53.246;-6.670;2023-07-29T11:37:35;2.28;;;0.50;;
55915;SDS011;41826;53.246;-6.670;2023-07-29T11:40:00;7.82;;;0.88;;
55915;SDS011;41826;53.246;-6.670;2023-07-29T11:42:28;4.43;;;0.70;;
55915;SDS011;41826;53.246;-6.670;2023-07-29T11:44:56;4.70;;;1.02;;
55915;SDS011;41826;53.246;-6.670;2023-07-29T11:47:23;1.85;;;0.60;;
55915;SDS011;41826;53.246;-6.670;2023-07-29T11:49:48;4.43;;;0.90;;
55915;SDS011;41826;53.246;-6.670;2023-07-29T11:52:14;5.38;;;0.70;;
55915;SDS011;41826;53.246;-6.670;2023-07-29T11:54:43;4.50;;;0.90;;
55915;SDS011;41826;53.246;-6.670;2023-07-29T11:57:09;4.45;;;0.55;;
55915;SDS011;41826;53.246;-6.670;2023-07-29T11:59:35;3.58;;;0.50;;
55915;SDS011;41826;53.246;-6.670;2023-07-29T12:02:02;3.35;;;0.68;;
55915;SDS011;41826;53.246;-6.670;2023-07-29T12:04:33;4.28;;;0.50;;
55915;SDS011;41826;53.246;-6.670;2023-07-29T12:07:00;1.73;;;0.50;;
55915;SDS011;41826;53.246;-6.670;2023-07-29T12:09:27;3.53;;;0.55;;
55915;SDS011;41826;53.246;-6.670;2023-07-29T12:11:54;4.97;;;0.70;;
55915;SDS011;41826;53.246;-6.670;2023-07-29T12:14:20;4.35;;;0.85;;
55915;SDS011;41826;53.246;-6.670;2023-07-29T12:16:47;5.78;;;1.10;;
55915;SDS011;41826;53.246;-6.670;2023-07-29T12:19:14;4.72;;;1.35;;
55915;SDS011;41826;53.246;-6.670;2023-07-29T12:21:43;3.60;;;1.00;;
55915;SDS011;41826;53.246;-6.670;2023-07-29T12:24:12;4.47;;;0.88;;
55915;SDS011;41826;53.246;-6.670;2023-07-29T12:26:41;5.60;;;1.00;;
55915;SDS011;41826;53.246;-6.670;2023-07-29T12:31:38;5.22;;;1.13;;
55915;SDS011;41826;53.246;-6.670;2023-07-29T12:34:04;5.60;;;1.05;;
55915;SDS011;41826;53.246;-6.670;2023-07-29T12:36:49;0.88;;;0.47;;
55915;SDS011;41826;53.246;-6.670;2023-07-29T12:39:25;2.42;;;0.60;;
55915;SDS011;41826;53.246;-6.670;2023-07-29T12:41:52;4.03;;;0.70;;
55915;SDS011;41826;53.246;-6.670;2023-07-29T12:44:19;1.17;;;0.50;;
55915;SDS011;41826;53.246;-6.670;2023-07-29T12:46:45;5.35;;;1.00;;
55915;SDS011;41826;53.246;-6.670;2023-07-29T12:49:11;2.63;;;0.70;;
55915;SDS011;41826;53.246;-6.670;2023-07-29T12:51:36;2.47;;;0.60;;
55915;SDS011;41826;53.246;-6.670;2023-07-29T12:54:03;2.58;;;0.85;;
55915;SDS011;41826;53.246;-6.670;2023-07-29T12:56:29;4.97;;;0.82;;
55915;SDS011;41826;53.246;-6.670;2023-07-29T12:58:59;5.15;;;0.70;;
55915;SDS011;41826;53.246;-6.670;2023-07-29T13:01:25;4.07;;;0.98;;
55915;SDS011;41826;53.246;-6.670;2023-07-29T13:03:51;3.65;;;0.70;;
55915;SDS011;41826;53.246;-6.670;2023-07-29T13:06:17;2.78;;;0.93;;
55915;SDS011;41826;53.246;-6.670;2023-07-29T13:08:43;4.80;;;0.65;;
55915;SDS011;41826;53.246;-6.670;2023-07-29T13:11:09;3.67;;;0.82;;
55915;SDS011;41826;53.246;-6.670;2023-07-29T13:13:34;2.03;;;0.45;;
55915;SDS011;41826;53.246;-6.670;2023-07-29T13:16:00;1.17;;;0.40;;
55915;SDS011;41826;53.246;-6.670;2023-07-29T13:18:26;1.45;;;0.43;;
55915;SDS011;41826;53.246;-6.670;2023-07-29T13:20:52;1.25;;;0.40;;
55915;SDS011;41826;53.246;-6.670;2023-07-29T13:23:17;1.63;;;0.32;;
55915;SDS011;41826;53.246;-6.670;2023-07-29T13:25:42;2.65;;;0.60;;
55915;SDS011;41826;53.246;-6.670;2023-07-29T13:28:11;0.60;;;0.30;;
55915;SDS011;41826;53.246;-6.670;2023-07-29T13:30:40;2.33;;;0.50;;
55915;SDS011;41826;53.246;-6.670;2023-07-29T13:33:06;2.25;;;0.50;;
55915;SDS011;41826;53.246;-6.670;2023-07-29T13:35:32;2.45;;;0.50;;
55915;SDS011;41826;53.246;-6.670;2023-07-29T13:37:57;1.85;;;0.40;;
55915;SDS011;41826;53.246;-6.670;2023-07-29T13:40:23;2.20;;;0.60;;
55915;SDS011;41826;53.246;-6.670;2023-07-29T13:42:48;3.22;;;0.60;;
55915;SDS011;41826;53.246;-6.670;2023-07-29T13:45:14;3.53;;;0.75;;
55915;SDS011;41826;53.246;-6.670;2023-07-29T13:47:39;4.40;;;0.70;;
55915;SDS011;41826;53.246;-6.670;2023-07-29T13:50:05;4.30;;;0.85;;
55915;SDS011;41826;53.246;-6.670;2023-07-29T13:52:32;4.72;;;0.70;;
55915;SDS011;41826;53.246;-6.670;2023-07-29T13:54:58;3.70;;;0.80;;
55915;SDS011;41826;53.246;-6.670;2023-07-29T13:57:23;2.42;;;0.70;;
55915;SDS011;41826;53.246;-6.670;2023-07-29T13:59:48;2.72;;;0.63;;
55915;SDS011;41826;53.246;-6.670;2023-07-29T14:02:14;3.90;;;0.82;;
55915;SDS011;41826;53.246;-6.670;2023-07-29T14:04:39;3.15;;;0.70;;
55915;SDS011;41826;53.246;-6.670;2023-07-29T14:07:04;5.30;;;1.08;;
55915;SDS011;41826;53.246;-6.670;2023-07-29T14:09:30;3.67;;;0.75;;
55915;SDS011;41826;53.246;-6.670;2023-07-29T14:11:55;4.93;;;0.80;;
55915;SDS011;41826;53.246;-6.670;2023-07-29T14:14:21;3.88;;;0.95;;
55915;SDS011;41826;53.246;-6.670;2023-07-29T14:16:46;2.15;;;0.60;;
55915;SDS011;41826;53.246;-6.670;2023-07-29T14:19:12;3.15;;;0.68;;
55915;SDS011;41826;53.246;-6.670;2023-07-29T14:21:38;5.30;;;0.80;;
55915;SDS011;41826;53.246;-6.670;2023-07-29T14:24:03;3.50;;;0.90;;
55915;SDS011;41826;53.246;-6.670;2023-07-29T14:26:29;2.58;;;1.00;;
55915;SDS011;41826;53.246;-6.670;2023-07-29T14:28:54;3.45;;;0.57;;
55915;SDS011;41826;53.246;-6.670;2023-07-29T14:31:19;4.32;;;0.88;;
55915;SDS011;41826;53.246;-6.670;2023-07-29T14:33:45;4.47;;;0.80;;
55915;SDS011;41826;53.246;-6.670;2023-07-29T14:36:10;3.33;;;0.70;;
55915;SDS011;41826;53.246;-6.670;2023-07-29T14:38:36;4.15;;;1.02;;
55915;SDS011;41826;53.246;-6.670;2023-07-29T14:41:02;4.72;;;0.70;;
55915;SDS011;41826;53.246;-6.670;2023-07-29T14:43:29;5.53;;;0.70;;
55915;SDS011;41826;53.246;-6.670;2023-07-29T14:45:55;4.45;;;0.93;;
55915;SDS011;41826;53.246;-6.670;2023-07-29T14:48:20;4.00;;;0.75;;
55915;SDS011;41826;53.246;-6.670;2023-07-29T14:50:45;4.75;;;1.02;;